createdAt,value
2022-12-05T00:00:27.686Z,0
2022-12-05T00:01:31.113Z,0
2022-12-05T00:03:37.890Z,0
2022-12-05T00:05:43.977Z,0
2022-12-05T00:07:50.602Z,0
2022-12-05T00:08:52.940Z,0
2022-12-05T00:10:59.983Z,0
2022-12-05T00:13:05.881Z,0
2022-12-05T00:14:08.979Z,0
2022-12-05T00:15:12.095Z,0
2022-12-05T00:16:15.308Z,0
2022-12-05T00:18:21.565Z,0
2022-12-05T00:19:23.998Z,0
2022-12-05T00:20:27.133Z,0
2022-12-05T00:21:30.333Z,0
2022-12-05T00:23:37.505Z,0
2022-12-05T00:25:43.264Z,0
2022-12-05T00:26:46.304Z,0
2022-12-05T00:28:52.229Z,0
2022-12-05T00:30:58.358Z,0
2022-12-05T00:33:04.054Z,0
2022-12-05T00:34:06.593Z,0
2022-12-05T00:36:11.326Z,0
2022-12-05T00:38:18.554Z,0
2022-12-05T00:40:24.957Z,0
2022-12-05T00:41:28.307Z,0
2022-12-05T00:43:33.878Z,0
2022-12-05T00:45:40.157Z,0
2022-12-05T00:47:46.477Z,0
2022-12-05T00:48:48.785Z,0
2022-12-05T00:50:54.816Z,0
2022-12-05T00:53:00.141Z,0
2022-12-05T00:54:03.646Z,0
2022-12-05T00:55:06.511Z,0
2022-12-05T00:56:09.861Z,0
2022-12-05T00:58:14.811Z,0
2022-12-05T00:59:17.803Z,0
2022-12-05T01:00:20.957Z,0
2022-12-05T01:01:25.021Z,0
2022-12-05T01:03:32.135Z,0
2022-12-05T01:04:35.438Z,0
2022-12-05T01:05:38.232Z,0
2022-12-05T01:06:41.350Z,0
2022-12-05T01:08:48.197Z,0
2022-12-05T01:10:54.403Z,0
2022-12-05T01:11:57.734Z,0
2022-12-05T01:14:03.654Z,0
2022-12-05T01:16:09.186Z,0
2022-12-05T01:18:15.041Z,0
2022-12-05T01:19:17.892Z,0
2022-12-05T01:21:23.334Z,0
2022-12-05T01:23:28.963Z,0
2022-12-05T01:25:36.223Z,0
2022-12-05T01:26:39.269Z,0
2022-12-05T01:28:45.833Z,0
2022-12-05T01:30:51.141Z,0
2022-12-05T01:32:57.492Z,0
2022-12-05T01:34:00.556Z,0
2022-12-05T01:36:05.586Z,0
2022-12-05T01:38:10.419Z,0
2022-12-05T01:39:13.187Z,0
2022-12-05T01:40:16.737Z,0
2022-12-05T01:41:20.457Z,0
2022-12-05T01:42:28.603Z,0
2022-12-05T01:43:31.486Z,0
2022-12-05T01:45:38.186Z,0
2022-12-05T01:46:41.292Z,0
2022-12-05T01:48:46.009Z,0
2022-12-05T01:50:51.839Z,0
2022-12-05T01:51:54.409Z,0
2022-12-05T01:53:59.506Z,0
2022-12-05T01:56:05.536Z,0
2022-12-05T01:57:09.251Z,0
2022-12-05T01:58:12.293Z,0
2022-12-05T01:59:15.349Z,0
2022-12-05T02:01:20.981Z,0
2022-12-05T02:02:24.503Z,0
2022-12-05T02:04:30.876Z,0
2022-12-05T02:06:36.642Z,0
2022-12-05T02:08:42.079Z,0
2022-12-05T02:09:44.857Z,0
2022-12-05T02:11:50.954Z,0
2022-12-05T02:13:57.503Z,0
2022-12-05T02:15:00.287Z,0
2022-12-05T02:17:07.500Z,0
2022-12-05T02:19:13.493Z,0
2022-12-05T02:20:16.757Z,0
2022-12-05T02:22:22.034Z,0
2022-12-05T02:23:25.455Z,0
2022-12-05T02:25:31.199Z,0
2022-12-05T02:26:34.453Z,0
2022-12-05T02:28:41.483Z,0
2022-12-05T02:29:44.054Z,0
2022-12-05T02:31:50.627Z,0
2022-12-05T02:33:55.926Z,0
2022-12-05T02:34:58.980Z,0
2022-12-05T02:37:05.811Z,0
2022-12-05T02:38:08.577Z,0
2022-12-05T02:40:13.617Z,0
2022-12-05T02:42:19.515Z,0
2022-12-05T02:43:23.002Z,0
2022-12-05T02:45:30.515Z,0
2022-12-05T02:47:36.988Z,0
2022-12-05T02:49:43.087Z,0
2022-12-05T02:50:45.593Z,0
2022-12-05T02:52:51.925Z,0
2022-12-05T02:54:58.503Z,0
2022-12-05T02:56:01.024Z,0
2022-12-05T02:57:04.445Z,0
2022-12-05T02:58:07.702Z,0
2022-12-05T03:00:14.590Z,0
2022-12-05T03:01:18.143Z,0
2022-12-05T03:03:24.478Z,0
2022-12-05T03:05:30.650Z,0
2022-12-05T03:07:36.807Z,0
2022-12-05T03:08:40.081Z,0
2022-12-05T03:10:45.472Z,0
2022-12-05T03:11:48.461Z,0
2022-12-05T03:13:55.096Z,0
2022-12-05T03:16:02.658Z,0
2022-12-05T03:17:05.940Z,0
2022-12-05T03:18:09.106Z,0
2022-12-05T03:19:12.166Z,0
2022-12-05T03:20:15.218Z,0
2022-12-05T03:22:20.567Z,0
2022-12-05T03:24:27.044Z,0
2022-12-05T03:25:30.036Z,0
2022-12-05T03:27:35.643Z,0
2022-12-05T03:29:40.710Z,0
2022-12-05T03:31:48.178Z,0
2022-12-05T03:32:51.142Z,0
2022-12-05T03:34:56.699Z,0
2022-12-05T03:36:00.030Z,0
2022-12-05T03:38:05.175Z,0
2022-12-05T03:40:11.011Z,0
2022-12-05T03:41:14.160Z,0
2022-12-05T03:43:20.355Z,0
2022-12-05T03:45:26.060Z,0
2022-12-05T03:46:29.849Z,0
2022-12-05T03:48:37.083Z,0
2022-12-05T03:50:43.183Z,0
2022-12-05T03:51:46.546Z,0
2022-12-05T03:53:22.464Z,0
2022-12-05T03:54:24.911Z,0
2022-12-05T03:56:30.215Z,0
2022-12-05T03:57:33.671Z,0
2022-12-05T03:58:36.449Z,0
2022-12-05T03:59:39.434Z,0
2022-12-05T04:01:46.528Z,0
2022-12-05T04:02:50.282Z,0
2022-12-05T04:04:56.792Z,0
2022-12-05T04:07:03.180Z,0
2022-12-05T04:08:07.302Z,0
2022-12-05T04:09:19.157Z,0
2022-12-05T04:10:22.746Z,0
2022-12-05T04:12:29.441Z,0
2022-12-05T04:13:33.092Z,0
2022-12-05T04:15:38.484Z,0
2022-12-05T04:17:52.062Z,0
2022-12-05T04:18:57.563Z,0
2022-12-05T04:21:05.488Z,0
2022-12-05T04:23:10.753Z,0
2022-12-05T04:24:14.089Z,0
2022-12-05T04:25:17.346Z,0
2022-12-05T04:26:20.684Z,0
2022-12-05T04:28:26.229Z,0
2022-12-05T04:29:28.921Z,0
2022-12-05T04:31:35.390Z,0
2022-12-05T04:32:37.978Z,0
2022-12-05T04:33:41.546Z,0
2022-12-05T04:34:45.541Z,0
2022-12-05T04:36:52.160Z,0
2022-12-05T04:37:55.286Z,0
2022-12-05T04:40:02.384Z,0
2022-12-05T04:42:08.097Z,0
2022-12-05T04:43:11.151Z,0
2022-12-05T04:45:17.117Z,0
2022-12-05T04:47:23.581Z,0
2022-12-05T04:49:29.827Z,0
2022-12-05T04:50:33.275Z,0
2022-12-05T04:52:40.046Z,0
2022-12-05T04:54:45.538Z,0
2022-12-05T04:55:48.802Z,0
2022-12-05T04:56:53.670Z,0
2022-12-05T04:57:58.658Z,0
2022-12-05T05:00:04.653Z,0
2022-12-05T05:01:08.297Z,0
2022-12-05T05:02:11.580Z,0
2022-12-05T05:03:15.749Z,0
2022-12-05T05:05:22.148Z,0
2022-12-05T05:06:26.157Z,0
2022-12-05T05:08:31.803Z,0
2022-12-05T05:10:37.277Z,0
2022-12-05T05:12:43.772Z,0
2022-12-05T05:13:47.290Z,0
2022-12-05T05:15:53.577Z,0
2022-12-05T05:17:59.853Z,0
2022-12-05T05:19:02.971Z,0
2022-12-05T05:20:05.542Z,0
2022-12-05T05:21:09.007Z,0
2022-12-05T05:23:15.535Z,0
2022-12-05T05:24:18.671Z,0
2022-12-05T05:25:21.099Z,0
2022-12-05T05:26:24.154Z,0
2022-12-05T05:28:30.183Z,0
2022-12-05T05:29:33.181Z,0
2022-12-05T05:30:35.672Z,0
2022-12-05T05:31:39.382Z,0
2022-12-05T05:33:44.978Z,0
2022-12-05T05:35:51.867Z,0
2022-12-05T05:36:55.288Z,0
2022-12-05T05:39:01.787Z,0
2022-12-05T05:40:12.901Z,0
2022-12-05T05:41:15.199Z,0
2022-12-05T05:43:21.362Z,0
2022-12-05T05:44:24.986Z,0
2022-12-05T05:46:31.997Z,0
2022-12-05T05:48:38.222Z,0
2022-12-05T05:50:43.485Z,0
2022-12-05T05:51:46.810Z,0
2022-12-05T05:53:53.806Z,0
2022-12-05T05:55:59.279Z,0
2022-12-05T05:58:04.958Z,0
2022-12-05T05:59:07.172Z,0
2022-12-05T06:00:10.436Z,0
2022-12-05T06:01:13.492Z,0
2022-12-05T06:03:20.818Z,0
2022-12-05T06:04:24.993Z,0
2022-12-05T06:05:28.322Z,0
2022-12-05T06:06:30.748Z,0
2022-12-05T06:08:37.287Z,0
2022-12-05T06:09:40.734Z,0
2022-12-05T06:10:43.861Z,0
2022-12-05T06:11:46.367Z,0
2022-12-05T06:13:52.563Z,0
2022-12-05T06:15:58.503Z,0
2022-12-05T06:17:01.405Z,0
2022-12-05T06:19:08.144Z,0
2022-12-05T06:21:18.493Z,0
2022-12-05T06:23:24.686Z,0
2022-12-05T06:24:28.228Z,0
2022-12-05T06:26:34.841Z,0
2022-12-05T06:28:40.537Z,0
2022-12-05T06:30:44.898Z,0
2022-12-05T06:31:48.881Z,0
2022-12-05T06:33:54.921Z,0
2022-12-05T06:36:01.191Z,0
2022-12-05T06:38:07.014Z,0
2022-12-05T06:39:09.154Z,0
2022-12-05T06:41:16.708Z,0
2022-12-05T06:43:23.309Z,0
2022-12-05T06:45:30.106Z,0
2022-12-05T06:46:33.179Z,0
2022-12-05T06:48:39.933Z,0
2022-12-05T06:50:45.775Z,0
2022-12-05T06:52:50.783Z,0
2022-12-05T06:53:53.915Z,0
2022-12-05T06:56:00.792Z,0
2022-12-05T06:58:07.282Z,0
2022-12-05T07:00:12.929Z,0
2022-12-05T07:01:15.998Z,0
2022-12-05T07:03:21.668Z,0
2022-12-05T07:05:27.575Z,0
2022-12-05T07:07:33.579Z,0
2022-12-05T07:08:37.285Z,0
2022-12-05T07:10:43.127Z,0
2022-12-05T07:12:50.136Z,0
2022-12-05T07:14:55.501Z,0
2022-12-05T07:15:58.414Z,0
2022-12-05T07:18:04.711Z,0
2022-12-05T07:20:11.057Z,1
2022-12-05T07:22:19.932Z,1
2022-12-05T07:23:22.641Z,1
2022-12-05T07:25:28.116Z,1
2022-12-05T07:27:34.912Z,1
2022-12-05T07:29:41.065Z,2
2022-12-05T07:30:44.120Z,2
2022-12-05T07:32:50.649Z,2
2022-12-05T07:34:57.566Z,2
2022-12-05T07:36:00.974Z,2
2022-12-05T07:37:04.130Z,2
2022-12-05T07:38:06.715Z,2
2022-12-05T07:40:12.294Z,3
2022-12-05T07:41:16.191Z,2
2022-12-05T07:43:21.986Z,2
2022-12-05T07:45:29.003Z,2
2022-12-05T07:47:35.797Z,3
2022-12-05T07:48:38.856Z,3
2022-12-05T07:50:45.372Z,3
2022-12-05T07:52:51.151Z,3
2022-12-05T07:54:57.124Z,3
2022-12-05T07:56:00.170Z,3
2022-12-05T07:58:06.065Z,3
2022-12-05T08:00:13.534Z,3
2022-12-05T08:02:21.372Z,4
2022-12-05T08:03:24.466Z,4
2022-12-05T08:05:31.014Z,5
2022-12-05T08:07:37.335Z,4
2022-12-05T08:08:40.755Z,4
2022-12-05T08:09:43.822Z,4
2022-12-05T08:10:47.079Z,4
2022-12-05T08:11:54.889Z,4
2022-12-05T08:12:57.611Z,4
2022-12-05T08:15:03.890Z,5
2022-12-05T08:16:07.340Z,5
2022-12-05T08:18:13.027Z,5
2022-12-05T08:20:18.589Z,6
2022-12-05T08:21:21.834Z,6
2022-12-05T08:22:25.529Z,6
2022-12-05T08:23:28.372Z,6
2022-12-05T08:25:34.979Z,7
2022-12-05T08:26:37.717Z,6
2022-12-05T08:27:40.583Z,7
2022-12-05T08:28:44.301Z,6
2022-12-05T08:30:51.392Z,9
2022-12-05T08:32:58.100Z,10
2022-12-05T08:34:01.600Z,11
2022-12-05T08:36:06.680Z,15
2022-12-05T08:38:13.140Z,17
2022-12-05T08:39:16.218Z,15
2022-12-05T08:40:19.334Z,13
2022-12-05T08:41:22.392Z,13
2022-12-05T08:43:28.586Z,11
2022-12-05T08:45:34.544Z,12
2022-12-05T08:46:38.558Z,12
2022-12-05T08:47:42.619Z,12
2022-12-05T08:48:45.958Z,12
2022-12-05T08:50:52.658Z,11
2022-12-05T08:52:58.129Z,12
2022-12-05T08:54:01.469Z,13
2022-12-05T08:56:07.726Z,12
2022-12-05T08:58:14.270Z,11
2022-12-05T08:59:17.317Z,10
2022-12-05T09:00:19.829Z,8
2022-12-05T09:01:23.324Z,8
2022-12-05T09:03:30.628Z,9
2022-12-05T09:05:37.028Z,12
2022-12-05T09:07:44.566Z,10
2022-12-05T09:08:47.312Z,11
2022-12-05T09:10:53.489Z,11
2022-12-05T09:12:59.679Z,12
2022-12-05T09:14:01.815Z,12
2022-12-05T09:15:04.602Z,11
2022-12-05T09:16:08.578Z,10
2022-12-05T09:18:15.106Z,13
2022-12-05T09:19:18.600Z,15
2022-12-05T09:20:21.662Z,15
2022-12-05T09:21:24.741Z,14
2022-12-05T09:23:30.983Z,16
2022-12-05T09:24:33.510Z,17
2022-12-05T09:25:36.554Z,19
2022-12-05T09:26:39.604Z,17
2022-12-05T09:28:45.749Z,19
2022-12-05T09:30:51.871Z,17
2022-12-05T09:31:55.279Z,17
2022-12-05T09:34:01.712Z,15
2022-12-05T09:36:08.292Z,15
2022-12-05T09:37:41.433Z,15
2022-12-05T09:38:44.752Z,16
2022-12-05T09:39:47.815Z,16
2022-12-05T09:40:51.274Z,16
2022-12-05T09:41:56.161Z,15
2022-12-05T09:44:02.663Z,18
2022-12-05T09:45:05.371Z,16
2022-12-05T09:47:12.185Z,15
2022-12-05T09:49:18.914Z,14
2022-12-05T09:50:23.263Z,14
2022-12-05T09:52:29.732Z,15
2022-12-05T09:54:35.694Z,18
2022-12-05T09:55:38.760Z,19
2022-12-05T09:57:44.908Z,19
2022-12-05T09:58:47.685Z,21
2022-12-05T09:59:50.531Z,21
2022-12-05T10:00:53.699Z,20
2022-12-05T10:03:01.044Z,21
2022-12-05T10:04:04.388Z,20
2022-12-05T10:06:13.883Z,22
2022-12-05T10:08:20.238Z,24
2022-12-05T10:09:23.305Z,25
2022-12-05T10:11:29.580Z,27
2022-12-05T10:12:32.644Z,27
2022-12-05T10:14:39.062Z,30
2022-12-05T10:15:48.122Z,30
2022-12-05T10:16:52.410Z,30
2022-12-05T10:17:55.207Z,30
2022-12-05T10:20:00.964Z,30
2022-12-05T10:21:04.868Z,26
2022-12-05T10:24:00.409Z,19
2022-12-05T10:25:04.243Z,23
2022-12-05T10:26:06.956Z,22
2022-12-05T10:28:13.728Z,24
2022-12-05T10:29:16.505Z,21
2022-12-05T10:31:23.323Z,30
2022-12-05T10:33:29.401Z,23
2022-12-05T10:34:32.665Z,25
2022-12-05T10:36:39.028Z,23
2022-12-05T10:38:45.596Z,27
2022-12-05T10:39:48.373Z,28
2022-12-05T10:40:51.521Z,25
2022-12-05T10:41:54.774Z,22
2022-12-05T10:44:00.625Z,24
2022-12-05T10:45:03.981Z,26
2022-12-05T10:46:18.244Z,30
2022-12-05T10:47:22.001Z,35
2022-12-05T10:49:29.252Z,33
2022-12-05T10:51:40.342Z,34
2022-12-05T10:52:43.845Z,36
2022-12-05T10:54:50.052Z,26
2022-12-05T10:56:32.669Z,27
2022-12-05T10:57:35.937Z,28
2022-12-05T10:59:46.155Z,25
2022-12-05T11:01:59.273Z,21
2022-12-05T11:03:03.237Z,25
2022-12-05T11:04:15.582Z,25
2022-12-05T11:05:19.206Z,22
2022-12-05T11:06:22.320Z,23
2022-12-05T11:09:07.768Z,27
2022-12-05T11:11:13.985Z,23
2022-12-05T11:13:19.259Z,25
2022-12-05T11:14:22.032Z,23
2022-12-05T11:15:25.020Z,24
2022-12-05T11:16:28.944Z,27
2022-12-05T11:18:35.235Z,32
2022-12-05T11:19:38.590Z,31
2022-12-05T11:21:44.672Z,29
2022-12-05T11:23:53.492Z,34
2022-12-05T11:26:03.486Z,36
2022-12-05T11:27:06.271Z,35
2022-12-05T11:29:12.004Z,33
2022-12-05T11:30:15.223Z,31
2022-12-05T11:31:19.764Z,32
2022-12-05T11:32:23.180Z,36
2022-12-05T11:34:29.825Z,39
2022-12-05T11:35:33.497Z,37
2022-12-05T11:37:38.696Z,28
2022-12-05T11:39:45.225Z,27
2022-12-05T11:40:48.683Z,29
2022-12-05T11:42:56.476Z,25
2022-12-05T11:43:59.570Z,23
2022-12-05T11:46:07.305Z,23
2022-12-05T11:48:13.349Z,25
2022-12-05T11:49:15.928Z,28
2022-12-05T11:51:21.565Z,26
2022-12-05T11:52:24.989Z,25
2022-12-05T11:53:28.038Z,24
2022-12-05T11:55:08.176Z,23
2022-12-05T11:57:15.816Z,24
2022-12-05T11:59:22.197Z,20
2022-12-05T12:00:25.046Z,20
2022-12-05T12:02:32.589Z,21
2022-12-05T12:04:39.591Z,23
2022-12-05T12:05:42.999Z,22
2022-12-05T12:07:49.413Z,26
2022-12-05T12:08:52.196Z,30
2022-12-05T12:10:59.196Z,32
2022-12-05T12:12:02.700Z,32
2022-12-05T12:14:09.665Z,29
2022-12-05T12:16:15.141Z,30
2022-12-05T12:17:18.161Z,28
2022-12-05T12:19:25.134Z,31
2022-12-05T12:21:40.303Z,30
2022-12-05T12:22:43.559Z,29
2022-12-05T12:24:49.568Z,25
2022-12-05T12:26:54.864Z,21
2022-12-05T12:28:06.527Z,22
2022-12-05T12:30:12.880Z,25
2022-12-05T12:32:20.003Z,23
2022-12-05T12:33:29.221Z,22
2022-12-05T12:34:32.566Z,24
2022-12-05T12:35:35.619Z,26
2022-12-05T12:37:41.056Z,27
2022-12-05T12:38:53.352Z,24
2022-12-05T12:40:59.767Z,22
2022-12-05T12:43:07.263Z,24
2022-12-05T12:44:10.137Z,25
2022-12-05T12:46:17.907Z,21
2022-12-05T12:48:24.291Z,20
2022-12-05T12:49:27.161Z,19
2022-12-05T12:51:33.704Z,21
2022-12-05T12:53:39.083Z,21
2022-12-05T12:55:07.093Z,18
2022-12-05T12:57:25.729Z,18
2022-12-05T12:59:32.338Z,16
2022-12-05T13:00:36.440Z,17
2022-12-05T13:02:44.300Z,18
2022-12-05T13:03:53.905Z,16
2022-12-05T13:04:58.572Z,15
2022-12-05T13:06:02.062Z,14
2022-12-05T13:07:05.123Z,14
2022-12-05T13:08:07.851Z,15
2022-12-05T13:10:13.837Z,14
2022-12-05T13:11:16.968Z,14
2022-12-05T13:13:23.303Z,13
2022-12-05T13:15:29.654Z,14
2022-12-05T13:16:34.409Z,14
2022-12-05T13:17:37.218Z,14
2022-12-05T13:18:40.364Z,14
2022-12-05T13:20:46.217Z,14
2022-12-05T13:21:49.361Z,13
2022-12-05T13:23:54.457Z,13
2022-12-05T13:26:02.797Z,14
2022-12-05T13:27:05.818Z,15
2022-12-05T13:28:08.231Z,15
2022-12-05T13:29:11.732Z,15
2022-12-05T13:31:20.112Z,14
2022-12-05T13:32:23.941Z,14
2022-12-05T13:34:29.779Z,12
2022-12-05T13:36:36.105Z,11
2022-12-05T13:37:39.363Z,11
2022-12-05T13:39:44.988Z,11
2022-12-05T13:41:51.082Z,11
2022-12-05T13:42:53.873Z,10
2022-12-05T13:44:09.055Z,11
2022-12-05T13:45:12.389Z,11
2022-12-05T13:47:19.398Z,11
2022-12-05T13:49:25.905Z,11
2022-12-05T13:50:28.732Z,10
2022-12-05T13:52:35.711Z,10
2022-12-05T13:54:41.568Z,11
2022-12-05T13:55:45.263Z,11
2022-12-05T13:57:51.268Z,10
2022-12-05T13:59:58.142Z,9
2022-12-05T14:01:01.993Z,7
2022-12-05T14:03:09.439Z,6
2022-12-05T14:05:16.407Z,6
2022-12-05T14:06:19.739Z,5
2022-12-05T14:08:25.896Z,4
2022-12-05T14:10:33.050Z,4
2022-12-05T14:12:39.459Z,3
2022-12-05T14:13:42.609Z,4
2022-12-05T14:15:48.661Z,3
2022-12-05T14:17:55.469Z,3
2022-12-05T14:18:59.217Z,3
2022-12-05T14:21:06.861Z,3
2022-12-05T14:23:12.651Z,3
2022-12-05T14:24:15.142Z,3
2022-12-05T14:26:21.245Z,3
2022-12-05T14:27:24.013Z,3
2022-12-05T14:29:29.271Z,3
2022-12-05T14:31:35.770Z,3
2022-12-05T14:32:38.576Z,3
2022-12-05T14:34:44.798Z,2
2022-12-05T14:36:51.066Z,2
2022-12-05T14:37:53.845Z,2
2022-12-05T14:40:02.346Z,2
2022-12-05T14:41:08.589Z,2
2022-12-05T14:42:11.844Z,2
2022-12-05T14:43:15.113Z,1
2022-12-05T14:45:21.551Z,1
2022-12-05T14:47:27.319Z,1
2022-12-05T14:48:29.783Z,1
2022-12-05T14:49:49.520Z,1
2022-12-05T14:50:53.560Z,1
2022-12-05T14:53:00.058Z,1
2022-12-05T14:54:03.433Z,0
2022-12-05T14:55:06.429Z,0
2022-12-05T14:56:10.058Z,0
2022-12-05T14:58:16.243Z,0
2022-12-05T14:59:19.442Z,0
2022-12-05T15:01:26.762Z,0
2022-12-05T15:03:32.746Z,0
2022-12-05T15:04:36.975Z,0
2022-12-05T15:06:44.823Z,0
2022-12-05T15:08:51.532Z,0
2022-12-05T15:09:58.172Z,0
2022-12-05T15:12:11.588Z,0
2022-12-05T15:14:17.710Z,0
2022-12-05T15:15:20.505Z,0
2022-12-05T15:17:27.170Z,0
2022-12-05T15:19:33.013Z,0
2022-12-05T15:20:42.385Z,0
2022-12-05T15:21:45.590Z,0
2022-12-05T15:22:49.654Z,0
2022-12-05T15:24:56.152Z,0
2022-12-05T15:26:50.187Z,0
2022-12-05T15:27:53.202Z,0
2022-12-05T15:28:56.556Z,0
2022-12-05T15:31:03.277Z,0
2022-12-05T15:33:09.767Z,0
2022-12-05T15:34:13.469Z,0
2022-12-05T15:36:19.653Z,0
2022-12-05T15:38:29.863Z,0
2022-12-05T15:39:32.716Z,0
2022-12-05T15:41:38.877Z,0
2022-12-05T15:43:45.054Z,0
2022-12-05T15:44:48.380Z,0
2022-12-05T15:46:54.486Z,0
2022-12-05T15:48:59.817Z,0
2022-12-05T15:50:03.458Z,0
2022-12-05T15:52:10.506Z,0
2022-12-05T15:54:17.821Z,0
2022-12-05T15:55:21.270Z,0
2022-12-05T15:56:24.620Z,0
2022-12-05T15:57:28.322Z,0
2022-12-05T15:58:31.999Z,0
2022-12-05T15:59:35.083Z,0
2022-12-05T16:00:38.054Z,0
2022-12-05T16:02:44.464Z,0
2022-12-05T16:03:47.371Z,0
2022-12-05T16:05:53.489Z,0
2022-12-05T16:07:59.646Z,0
2022-12-05T16:09:02.864Z,0
2022-12-05T16:11:09.764Z,0
2022-12-05T16:13:16.800Z,0
2022-12-05T16:15:02.564Z,0
2022-12-05T16:16:05.928Z,0
2022-12-05T16:18:12.406Z,0
2022-12-05T16:19:15.739Z,0
2022-12-05T16:21:22.501Z,0
2022-12-05T16:23:28.479Z,0
2022-12-05T16:24:31.926Z,0
2022-12-05T16:25:36.090Z,0
2022-12-05T16:26:39.800Z,0
2022-12-05T16:28:46.163Z,0
2022-12-05T16:29:48.970Z,0
2022-12-05T16:31:56.470Z,0
2022-12-05T16:34:02.601Z,0
2022-12-05T16:35:05.938Z,0
2022-12-05T16:37:12.780Z,0
2022-12-05T16:39:21.870Z,0
2022-12-05T16:40:24.997Z,0
2022-12-05T16:42:31.842Z,0
2022-12-05T16:44:38.071Z,0
2022-12-05T16:45:41.509Z,0
2022-12-05T16:47:49.660Z,0
2022-12-05T16:49:55.825Z,0
2022-12-05T16:50:58.697Z,0
2022-12-05T16:53:04.227Z,0
2022-12-05T16:55:10.367Z,0
2022-12-05T16:57:17.473Z,0
2022-12-05T16:58:20.573Z,0
2022-12-05T17:00:26.489Z,0
2022-12-05T17:01:39.682Z,0
2022-12-05T17:02:42.850Z,0
2022-12-05T17:04:49.844Z,0
2022-12-05T17:05:53.198Z,0
2022-12-05T17:08:00.343Z,0
2022-12-05T17:10:06.845Z,0
2022-12-05T17:12:12.091Z,0
2022-12-05T17:13:16.496Z,0
2022-12-05T17:15:22.050Z,0
2022-12-05T17:17:29.424Z,0
2022-12-05T17:19:37.004Z,0
2022-12-05T17:20:40.060Z,0
2022-12-05T17:22:45.926Z,0
2022-12-05T17:24:53.079Z,0
2022-12-05T17:26:58.805Z,0
2022-12-05T17:28:02.249Z,0
2022-12-05T17:30:08.719Z,0
2022-12-05T17:32:14.927Z,0
2022-12-05T17:34:21.347Z,0
2022-12-05T17:35:23.771Z,0
2022-12-05T17:37:30.192Z,0
2022-12-05T17:39:35.373Z,0
2022-12-05T17:40:38.188Z,0
2022-12-05T17:41:41.695Z,0
2022-12-05T17:42:45.424Z,0
2022-12-05T17:44:52.501Z,0
2022-12-05T17:47:08.895Z,0
2022-12-05T17:48:11.481Z,0
2022-12-05T17:50:18.460Z,0
2022-12-05T17:52:24.396Z,0
2022-12-05T17:54:30.172Z,0
2022-12-05T17:55:33.584Z,0
2022-12-05T17:57:40.071Z,0
2022-12-05T17:59:46.692Z,0
2022-12-05T18:01:53.696Z,0
2022-12-05T18:02:56.229Z,0
2022-12-05T18:05:02.770Z,0
2022-12-05T18:07:08.318Z,0
2022-12-05T18:09:14.852Z,0
2022-12-05T18:10:18.905Z,0
2022-12-05T18:12:25.105Z,0
2022-12-05T18:14:31.348Z,0
2022-12-05T18:15:44.558Z,0
2022-12-05T18:16:48.759Z,0
2022-12-05T18:18:54.445Z,0
2022-12-05T18:19:56.871Z,0
2022-12-05T18:22:03.067Z,0
2022-12-05T18:24:08.800Z,0
2022-12-05T18:26:14.660Z,0
2022-12-05T18:27:18.008Z,0
2022-12-05T18:29:24.780Z,0
2022-12-05T18:31:31.628Z,0
2022-12-05T18:33:38.415Z,0
2022-12-05T18:34:41.806Z,0
2022-12-05T18:36:46.714Z,0
2022-12-05T18:38:53.528Z,0
2022-12-05T18:40:59.461Z,0
2022-12-05T18:42:02.161Z,0
2022-12-05T18:44:08.798Z,0
2022-12-05T18:46:15.478Z,0
2022-12-05T18:48:49.265Z,0
2022-12-05T18:50:56.412Z,0
2022-12-05T18:51:58.920Z,0
2022-12-05T18:54:04.924Z,0
2022-12-05T18:56:27.615Z,0
2022-12-05T18:57:31.731Z,0
2022-12-05T18:58:34.792Z,0
2022-12-05T19:00:42.099Z,0
2022-12-05T19:01:45.868Z,0
2022-12-05T19:03:53.299Z,0
2022-12-05T19:06:00.470Z,0
2022-12-05T19:08:07.172Z,0
2022-12-05T19:09:10.569Z,0
2022-12-05T19:11:17.770Z,0
2022-12-05T19:13:24.011Z,0
2022-12-05T19:15:30.758Z,0
2022-12-05T19:16:33.810Z,0
2022-12-05T19:18:40.027Z,0
2022-12-05T19:20:46.625Z,0
2022-12-05T19:21:49.601Z,0
2022-12-05T19:23:02.071Z,0
2022-12-05T19:24:05.701Z,0
2022-12-05T19:26:11.481Z,0
2022-12-05T19:28:17.754Z,0
2022-12-05T19:29:20.528Z,0
2022-12-05T19:31:26.906Z,0
2022-12-05T19:33:33.487Z,0
2022-12-05T19:35:40.387Z,0
2022-12-05T19:36:43.555Z,0
2022-12-05T19:38:49.502Z,0
2022-12-05T19:40:54.151Z,0
2022-12-05T19:42:59.575Z,0
2022-12-05T19:44:02.340Z,0
2022-12-05T19:45:19.589Z,0
2022-12-05T19:46:22.865Z,0
2022-12-05T19:48:28.433Z,0
2022-12-05T19:50:33.945Z,0
2022-12-05T19:51:38.024Z,0
2022-12-05T19:52:41.002Z,0
2022-12-05T19:53:43.787Z,0
2022-12-05T19:55:51.259Z,0
2022-12-05T19:57:58.095Z,0
2022-12-05T19:59:00.592Z,0
2022-12-05T20:01:06.936Z,0
2022-12-05T20:03:14.569Z,0
2022-12-05T20:05:21.218Z,0
2022-12-05T20:06:24.366Z,0
2022-12-05T20:08:31.115Z,0
2022-12-05T20:10:36.994Z,0
2022-12-05T20:11:39.773Z,0
2022-12-05T20:12:42.573Z,0
2022-12-05T20:13:50.423Z,0
2022-12-05T20:15:56.836Z,0
2022-12-05T20:18:03.716Z,0
2022-12-05T20:19:06.427Z,0
2022-12-05T20:21:11.975Z,0
2022-12-05T20:23:18.136Z,0
2022-12-05T20:25:23.481Z,0
2022-12-05T20:26:26.284Z,0
2022-12-05T20:28:31.958Z,0
2022-12-05T20:30:38.128Z,0
2022-12-05T20:31:40.722Z,0
2022-12-05T20:32:44.350Z,0
2022-12-05T20:33:47.404Z,0
2022-12-05T20:35:53.053Z,0
2022-12-05T20:37:59.235Z,0
2022-12-05T20:39:02.997Z,0
2022-12-05T20:41:08.066Z,0
2022-12-05T20:43:14.944Z,0
2022-12-05T20:45:20.899Z,0
2022-12-05T20:46:24.315Z,0
2022-12-05T20:48:30.014Z,0
2022-12-05T20:50:36.923Z,0
2022-12-05T20:51:40.087Z,0
2022-12-05T20:52:48.922Z,0
2022-12-05T20:53:51.924Z,0
2022-12-05T20:55:58.795Z,0
2022-12-05T20:58:07.139Z,0
2022-12-05T20:59:10.935Z,0
2022-12-05T21:01:18.134Z,0
2022-12-05T21:03:24.102Z,0
2022-12-05T21:05:30.020Z,0
2022-12-05T21:06:33.416Z,0
2022-12-05T21:08:39.707Z,0
2022-12-05T21:10:46.896Z,0
2022-12-05T21:12:52.439Z,0
2022-12-05T21:13:55.776Z,0
2022-12-05T21:16:02.269Z,0
2022-12-05T21:18:07.618Z,0
2022-12-05T21:20:13.466Z,0
2022-12-05T21:21:17.073Z,0
2022-12-05T21:23:22.704Z,0
2022-12-05T21:25:28.879Z,0
2022-12-05T21:27:35.385Z,0
2022-12-05T21:28:38.818Z,0
2022-12-05T21:30:45.287Z,0
2022-12-05T21:32:52.191Z,0
2022-12-05T21:33:55.452Z,0
2022-12-05T21:34:58.877Z,0
2022-12-05T21:36:01.900Z,0
2022-12-05T21:38:07.736Z,0
2022-12-05T21:39:11.170Z,0
2022-12-05T21:40:13.700Z,0
2022-12-05T21:41:16.840Z,0
2022-12-05T21:43:22.818Z,0
2022-12-05T21:44:25.590Z,0
2022-12-05T21:45:28.873Z,0
2022-12-05T21:46:32.865Z,0
2022-12-05T21:48:39.550Z,0
2022-12-05T21:50:45.345Z,0
2022-12-05T21:51:48.397Z,0
2022-12-05T21:53:54.936Z,0
2022-12-05T21:56:00.609Z,0
2022-12-05T21:58:06.955Z,0
2022-12-05T21:59:10.669Z,0
2022-12-05T22:01:16.500Z,0
2022-12-05T22:03:22.583Z,0
2022-12-05T22:05:27.814Z,0
2022-12-05T22:06:30.309Z,0
2022-12-05T22:08:35.917Z,0
2022-12-05T22:10:42.848Z,0
2022-12-05T22:12:50.075Z,0
2022-12-05T22:13:53.269Z,0
2022-12-05T22:15:59.978Z,0
2022-12-05T22:18:05.913Z,0
2022-12-05T22:20:11.765Z,0
2022-12-05T22:21:14.278Z,0
2022-12-05T22:23:21.456Z,0
2022-12-05T22:25:28.327Z,0
2022-12-05T22:27:35.176Z,0
2022-12-05T22:28:38.180Z,0
2022-12-05T22:30:45.080Z,0
2022-12-05T22:32:51.472Z,0
2022-12-05T22:35:06.096Z,0
2022-12-05T22:36:08.890Z,0
2022-12-05T22:38:15.268Z,0
2022-12-05T22:40:20.819Z,0
2022-12-05T22:41:23.329Z,0
2022-12-05T22:42:26.441Z,0
2022-12-05T22:43:29.617Z,0
2022-12-05T22:45:37.206Z,0
2022-12-05T22:47:42.683Z,0
2022-12-05T22:48:45.380Z,0
2022-12-05T22:50:51.803Z,0
2022-12-05T22:52:57.780Z,0
2022-12-05T22:55:04.265Z,0
2022-12-05T22:56:07.044Z,0
2022-12-05T22:58:13.039Z,0
2022-12-05T23:00:19.983Z,0
2022-12-05T23:01:24.027Z,0
2022-12-05T23:02:26.855Z,0
2022-12-05T23:03:30.372Z,0
2022-12-05T23:05:36.823Z,0
2022-12-05T23:06:39.243Z,0
2022-12-05T23:07:42.954Z,0
2022-12-05T23:08:46.043Z,0
2022-12-05T23:10:51.314Z,0
2022-12-05T23:11:54.179Z,0
2022-12-05T23:12:58.046Z,0
2022-12-05T23:14:04.455Z,0
2022-12-05T23:16:11.038Z,0
2022-12-05T23:18:18.171Z,0
2022-12-05T23:19:20.958Z,0
2022-12-05T23:21:27.658Z,0
2022-12-05T23:23:32.885Z,0
2022-12-05T23:25:38.931Z,0
2022-12-05T23:26:41.493Z,0
2022-12-05T23:28:47.208Z,0
2022-12-05T23:30:52.171Z,0
2022-12-05T23:32:58.947Z,0
2022-12-05T23:34:06.007Z,0
2022-12-05T23:36:12.536Z,0
2022-12-05T23:38:18.451Z,0
2022-12-05T23:40:23.372Z,0
2022-12-05T23:41:26.350Z,0
2022-12-05T23:43:32.245Z,0
2022-12-05T23:45:37.954Z,0
2022-12-05T23:47:45.276Z,0
2022-12-05T23:48:48.884Z,0
2022-12-05T23:50:54.963Z,0
2022-12-05T23:53:01.178Z,0
2022-12-05T23:55:06.351Z,0
2022-12-05T23:56:10.055Z,0
2022-12-05T23:57:19.644Z,0
2022-12-05T23:58:22.921Z,0
